createdAt,value
2017-04-23T00:00:02.553Z,4.0
2017-04-23T00:05:02.610Z,4.0
2017-04-23T00:10:03.316Z,4.0
2017-04-23T00:15:02.929Z,4.3
2017-04-23T00:20:02.631Z,4.3
2017-04-23T00:25:03.267Z,4.3
2017-04-23T00:30:02.940Z,4.3
2017-04-23T00:35:02.646Z,4.5
2017-04-23T00:40:03.393Z,4.3
2017-04-23T00:45:03.103Z,4.3
2017-04-23T00:50:02.765Z,4.3
2017-04-23T00:55:03.421Z,4.3
2017-04-23T01:01:06.259Z,4.3
2017-04-23T01:05:02.851Z,4.3
2017-04-23T01:10:02.689Z,4.3
2017-04-23T01:15:03.338Z,4.3
2017-04-23T01:20:03.136Z,4.3
2017-04-23T01:25:02.930Z,4.3
2017-04-23T01:30:02.615Z,4.3
2017-04-23T01:35:03.361Z,4.5
2017-04-23T01:40:03.173Z,4.5
2017-04-23T01:45:02.805Z,4.3
2017-04-23T01:50:02.419Z,4.5
2017-04-23T01:55:03.290Z,4.5
2017-04-23T02:00:03.096Z,4.5
2017-04-23T02:05:02.801Z,4.3
2017-04-23T02:10:02.517Z,4.3
2017-04-23T02:15:03.160Z,4.3
2017-04-23T02:20:02.761Z,4.3
2017-04-23T02:25:02.449Z,4.3
2017-04-23T02:30:03.162Z,4.0
2017-04-23T02:35:02.930Z,4.0
2017-04-23T02:40:02.675Z,4.0
2017-04-23T02:45:02.460Z,4.0
2017-04-23T02:50:03.184Z,4.0
2017-04-23T02:55:02.877Z,4.0
2017-04-23T03:00:02.629Z,4.3
2017-04-23T03:05:03.255Z,4.3
2017-04-23T03:10:03.099Z,4.5
2017-04-23T03:15:02.685Z,4.5
2017-04-23T03:20:02.478Z,4.3
2017-04-23T03:25:03.108Z,3.7
2017-04-23T03:30:02.791Z,3.5
2017-04-23T03:35:03.416Z,3.5
2017-04-23T03:40:03.219Z,3.5
2017-04-23T03:45:02.874Z,3.5
2017-04-23T03:50:02.569Z,3.2
2017-04-23T03:55:03.326Z,3.2
2017-04-23T04:00:18.014Z,3.2
2017-04-23T04:05:02.694Z,3.2
2017-04-23T04:10:03.329Z,3.2
2017-04-23T04:15:02.940Z,3.2
2017-04-23T04:20:02.753Z,3.2
2017-04-23T04:25:02.504Z,3.2
2017-04-23T04:30:03.245Z,3.2
2017-04-23T04:35:03.236Z,3.2
2017-04-23T04:40:02.854Z,3.2
2017-04-23T04:45:02.534Z,3.2
2017-04-23T04:50:03.180Z,3.2
2017-04-23T04:55:02.811Z,3.5
2017-04-23T05:00:02.397Z,3.7
2017-04-23T05:05:03.050Z,3.7
2017-04-23T05:10:02.670Z,3.2
2017-04-23T05:15:03.371Z,3.2
2017-04-23T05:20:03.013Z,3.2
2017-04-23T05:25:02.723Z,3.2
2017-04-23T05:30:02.416Z,3.2
2017-04-23T05:35:03.362Z,3.2
2017-04-23T05:40:03.167Z,3.7
2017-04-23T05:45:02.964Z,4.0
2017-04-23T05:50:02.771Z,4.3
2017-04-23T05:55:03.379Z,4.3
2017-04-23T06:00:02.949Z,4.3
2017-04-23T06:05:02.669Z,4.5
2017-04-23T06:10:02.498Z,4.5
2017-04-23T06:15:03.145Z,4.5
2017-04-23T06:20:02.764Z,4.5
2017-04-23T06:25:02.612Z,4.5
2017-04-23T06:30:02.391Z,4.5
2017-04-23T06:35:03.169Z,4.5
2017-04-23T06:40:02.873Z,4.5
2017-04-23T06:45:02.646Z,4.3
2017-04-23T06:50:03.382Z,4.0
2017-04-23T06:55:03.255Z,4.3
2017-04-23T07:00:02.859Z,4.5
2017-04-23T07:05:02.621Z,4.5
2017-04-23T07:10:03.378Z,4.5
2017-04-23T07:15:03.232Z,4.8
2017-04-23T07:20:03.027Z,4.8
2017-04-23T07:25:02.735Z,5.0
2017-04-23T07:30:02.480Z,5.0
2017-04-23T07:35:03.151Z,5.3
2017-04-23T07:40:03.025Z,5.5
2017-04-23T07:45:02.801Z,6.4
2017-04-23T07:50:02.720Z,6.0
2017-04-23T07:55:02.520Z,6.0
2017-04-23T08:00:03.231Z,6.0
2017-04-23T08:05:02.983Z,6.4
2017-04-23T08:10:02.754Z,6.4
2017-04-23T08:15:02.487Z,7.0
2017-04-23T08:20:03.182Z,8.8
2017-04-23T08:25:03.007Z,9.0
2017-04-23T08:30:02.712Z,8.1
2017-04-23T08:35:02.831Z,5.9
2017-04-23T08:40:02.554Z,5.4
2017-04-23T08:45:03.153Z,5.5
2017-04-23T08:50:03.014Z,5.9
2017-04-23T08:55:02.627Z,6.4
2017-04-23T09:00:03.276Z,6.9
2017-04-23T09:05:02.932Z,7.0
2017-04-23T09:10:03.006Z,6.0
2017-04-23T09:15:02.755Z,5.9
2017-04-23T09:20:03.369Z,5.4
2017-04-23T09:25:02.350Z,5.3
2017-04-23T09:30:03.297Z,5.3
2017-04-23T09:35:03.260Z,6.1
2017-04-23T09:40:03.397Z,8.1
2017-04-23T09:45:03.358Z,7.6
2017-04-23T09:50:03.359Z,7.1
2017-04-23T09:55:03.193Z,7.1
2017-04-23T10:00:03.441Z,7.5
2017-04-23T10:05:03.117Z,7.5
2017-04-23T10:10:02.941Z,8.0
2017-04-23T10:15:02.784Z,7.9
2017-04-23T10:20:02.495Z,7.9
2017-04-23T10:25:03.412Z,8.0
2017-04-23T10:30:02.529Z,8.1
2017-04-23T10:35:02.731Z,7.5
2017-04-23T10:40:02.948Z,6.9
2017-04-23T10:45:02.971Z,6.6
2017-04-23T10:50:02.985Z,7.0
2017-04-23T10:55:02.717Z,8.0
2017-04-23T11:00:03.271Z,8.1
2017-04-23T11:05:03.292Z,7.4
2017-04-23T11:10:03.075Z,7.1
2017-04-23T11:15:02.701Z,7.1
2017-04-23T11:20:03.290Z,6.9
2017-04-23T11:25:02.886Z,6.6
2017-04-23T11:30:02.636Z,6.6
2017-04-23T11:35:03.335Z,7.4
2017-04-23T11:40:02.969Z,8.6
2017-04-23T11:45:02.597Z,10.1
2017-04-23T11:50:03.259Z,10.8
2017-04-23T11:55:02.882Z,10.3
2017-04-23T12:00:02.478Z,10.1
2017-04-23T12:05:03.143Z,10.0
2017-04-23T12:10:02.840Z,10.0
2017-04-23T12:15:02.714Z,11.0
2017-04-23T12:20:03.451Z,10.3
2017-04-23T12:25:03.174Z,10.3
2017-04-23T12:30:02.828Z,10.8
2017-04-23T12:35:02.600Z,10.8
2017-04-23T12:40:02.620Z,10.3
2017-04-23T12:45:02.740Z,10.3
2017-04-23T12:50:02.976Z,10.5
2017-04-23T12:55:02.769Z,11.0
2017-04-23T13:00:03.174Z,11.8
2017-04-23T13:05:03.344Z,10.8
2017-04-23T13:10:03.240Z,11.3
2017-04-23T13:15:03.428Z,11.6
2017-04-23T13:20:02.497Z,11.8
2017-04-23T13:25:03.426Z,11.3
2017-04-23T13:30:03.189Z,10.1
2017-04-23T13:35:02.972Z,10.0
2017-04-23T13:40:02.817Z,9.8
2017-04-23T13:45:02.562Z,9.6
2017-04-23T13:50:02.630Z,9.3
2017-04-23T13:55:03.412Z,9.0
2017-04-23T14:00:02.894Z,8.8
2017-04-23T14:05:03.067Z,8.6
2017-04-23T14:10:03.172Z,8.8
2017-04-23T14:15:02.585Z,9.0
2017-04-23T14:20:02.960Z,9.0
2017-04-23T14:25:03.241Z,9.1
2017-04-23T14:30:03.133Z,9.1
2017-04-23T14:35:03.428Z,9.3
2017-04-23T14:40:03.232Z,9.6
2017-04-23T14:45:02.874Z,10.3
2017-04-23T14:50:03.136Z,10.1
2017-04-23T14:55:02.924Z,10.3
2017-04-23T15:00:02.908Z,10.3
2017-04-23T15:05:02.775Z,10.5
2017-04-23T15:10:02.930Z,10.3
2017-04-23T15:15:03.211Z,10.1
2017-04-23T15:20:02.564Z,9.8
2017-04-23T15:25:03.225Z,9.6
2017-04-23T15:30:03.306Z,10.1
2017-04-23T15:35:02.930Z,10.1
2017-04-23T15:40:02.798Z,9.6
2017-04-23T15:45:02.487Z,9.6
2017-04-23T15:50:03.114Z,9.3
2017-04-23T15:55:02.876Z,9.5
2017-04-23T16:00:02.518Z,9.5
2017-04-23T16:05:03.280Z,9.5
2017-04-23T16:10:02.908Z,9.5
2017-04-23T16:15:02.597Z,9.5
2017-04-23T16:20:03.400Z,9.3
2017-04-23T16:25:03.002Z,9.3
2017-04-23T16:30:02.700Z,9.1
2017-04-23T16:35:03.338Z,9.1
2017-04-23T16:40:02.953Z,9.3
2017-04-23T16:45:02.652Z,9.5
2017-04-23T16:50:03.335Z,9.5
2017-04-23T16:55:02.954Z,9.3
2017-04-23T17:00:02.542Z,9.3
2017-04-23T17:05:03.210Z,9.3
2017-04-23T17:10:02.921Z,9.3
2017-04-23T17:15:02.518Z,9.3
2017-04-23T17:20:03.264Z,10.1
2017-04-23T17:25:02.973Z,9.8
2017-04-23T17:30:02.586Z,9.1
2017-04-23T17:35:03.185Z,8.8
2017-04-23T17:40:02.780Z,8.6
2017-04-23T17:45:02.464Z,8.6
2017-04-23T17:50:03.059Z,9.0
2017-04-23T17:55:02.665Z,10.0
2017-04-23T18:00:03.335Z,9.8
2017-04-23T18:05:03.264Z,10.0
2017-04-23T18:10:03.006Z,8.6
2017-04-23T18:15:02.614Z,8.1
2017-04-23T18:20:03.308Z,7.9
2017-04-23T18:25:03.161Z,7.6
2017-04-23T18:30:02.793Z,7.5
2017-04-23T18:35:02.460Z,7.1
2017-04-23T18:40:02.885Z,7.0
2017-04-23T18:45:03.232Z,6.9
2017-04-23T18:50:02.966Z,6.9
2017-04-23T18:55:02.506Z,6.6
2017-04-23T19:00:03.189Z,6.5
2017-04-23T19:05:02.967Z,6.4
2017-04-23T19:10:02.712Z,6.1
2017-04-23T19:15:03.438Z,6.0
2017-04-23T19:20:03.240Z,5.9
2017-04-23T19:25:02.815Z,5.8
2017-04-23T19:30:02.606Z,5.4
2017-04-23T19:35:03.413Z,5.3
2017-04-23T19:40:03.112Z,5.0
2017-04-23T19:45:02.829Z,5.0
2017-04-23T19:50:02.548Z,5.0
2017-04-23T19:55:03.240Z,5.0
2017-04-23T20:00:02.831Z,4.8
2017-04-23T20:05:02.447Z,4.5
2017-04-23T20:10:03.058Z,4.5
2017-04-23T20:15:02.653Z,4.5
2017-04-23T20:20:03.435Z,4.0
2017-04-23T20:25:03.000Z,4.0
2017-04-23T20:30:02.694Z,4.0
2017-04-23T20:35:03.316Z,4.0
2017-04-23T20:40:02.933Z,3.7
2017-04-23T20:45:02.707Z,3.7
2017-04-23T20:50:03.371Z,3.7
2017-04-23T20:55:03.025Z,3.7
2017-04-23T21:00:02.592Z,3.5
2017-04-23T21:05:03.215Z,3.7
2017-04-23T21:10:02.999Z,3.7
2017-04-23T21:15:02.644Z,3.7
2017-04-23T21:20:03.227Z,3.5
2017-04-23T21:25:02.904Z,3.5
2017-04-23T21:30:02.560Z,3.2
2017-04-23T21:35:03.128Z,3.2
2017-04-23T21:40:02.732Z,3.2
2017-04-23T21:45:02.466Z,3.0
2017-04-23T21:50:03.192Z,3.0
2017-04-23T21:55:02.751Z,3.0
2017-04-23T22:00:02.454Z,2.9
2017-04-23T22:05:03.073Z,2.9
2017-04-23T22:10:02.778Z,2.9
2017-04-23T22:15:02.491Z,2.9
2017-04-23T22:20:03.240Z,2.9
2017-04-23T22:25:02.811Z,3.0
2017-04-23T22:30:02.484Z,3.0
2017-04-23T22:35:06.179Z,2.9
2017-04-23T22:40:02.865Z,2.9
2017-04-23T22:45:02.460Z,2.9
2017-04-23T22:50:03.189Z,2.9
2017-04-23T22:55:02.875Z,2.7
2017-04-23T23:00:33.684Z,2.7
2017-04-23T23:05:02.457Z,2.7
2017-04-23T23:10:03.127Z,3.0
2017-04-23T23:15:02.724Z,3.0
2017-04-23T23:20:03.422Z,2.9
2017-04-23T23:25:03.160Z,2.9
2017-04-23T23:30:02.893Z,3.0
2017-04-23T23:35:02.561Z,2.7
2017-04-23T23:40:03.201Z,2.7
2017-04-23T23:45:02.817Z,2.5
2017-04-23T23:50:03.393Z,2.4
2017-04-23T23:55:03.153Z,2.4
